createdAt,value
2019-04-01T00:00:17.143Z,85.00
2019-04-01T00:02:45.595Z,87.10
2019-04-01T00:05:14.330Z,86.50
2019-04-01T00:07:42.829Z,88.30
2019-04-01T00:10:11.427Z,89.10
2019-04-01T00:12:39.902Z,86.90
2019-04-01T00:15:08.435Z,87.60
2019-04-01T00:17:36.915Z,87.00
2019-04-01T00:20:06.433Z,86.60
2019-04-01T00:22:34.940Z,87.80
2019-04-01T00:25:03.522Z,87.80
2019-04-01T00:27:32.005Z,88.40
2019-04-01T00:30:00.456Z,87.20
2019-04-01T00:32:28.919Z,87.70
2019-04-01T00:34:57.391Z,87.60
2019-04-01T00:37:25.867Z,88.70
2019-04-01T00:39:54.400Z,89.50
2019-04-01T00:42:27.245Z,89.10
2019-04-01T00:44:55.730Z,88.10
2019-04-01T00:47:24.204Z,89.40
2019-04-01T00:49:52.686Z,89.80
2019-04-01T00:52:21.160Z,90.20
2019-04-01T00:54:49.650Z,89.80
2019-04-01T00:57:18.141Z,89.20
2019-04-01T00:59:46.633Z,90.20
2019-04-01T01:02:15.082Z,90.80
2019-04-01T01:04:43.570Z,90.50
2019-04-01T01:07:12.050Z,91.20
2019-04-01T01:09:40.489Z,91.80
2019-04-01T01:12:08.964Z,91.90
2019-04-01T01:14:37.410Z,92.00
2019-04-01T01:17:05.883Z,91.40
2019-04-01T01:19:34.628Z,91.50
2019-04-01T01:22:03.113Z,91.20
2019-04-01T01:24:32.565Z,91.30
2019-04-01T01:27:01.293Z,90.90
2019-04-01T01:29:29.800Z,91.30
2019-04-01T01:31:58.268Z,91.90
2019-04-01T01:34:26.738Z,91.40
2019-04-01T01:36:55.203Z,91.10
2019-04-01T01:39:23.689Z,90.70
2019-04-01T01:41:52.133Z,90.70
2019-04-01T01:44:20.624Z,90.50
2019-04-01T01:46:49.068Z,89.90
2019-04-01T01:49:17.558Z,90.20
2019-04-01T01:51:46.036Z,91.50
2019-04-01T01:54:14.494Z,91.50
2019-04-01T01:56:42.980Z,91.00
2019-04-01T01:59:11.439Z,91.30
2019-04-01T02:01:39.910Z,91.30
2019-04-01T02:04:08.533Z,92.00
2019-04-01T02:06:37.015Z,92.10
2019-04-01T02:09:06.527Z,92.40
2019-04-01T02:11:35.307Z,93.50
2019-04-01T02:14:03.764Z,93.20
2019-04-01T02:16:32.237Z,93.40
2019-04-01T02:19:00.717Z,92.90
2019-04-01T02:21:29.188Z,92.10
2019-04-01T02:23:57.666Z,91.40
2019-04-01T02:26:26.217Z,92.10
2019-04-01T02:28:54.747Z,92.50
2019-04-01T02:31:23.212Z,92.30
2019-04-01T02:33:52.052Z,92.90
2019-04-01T02:36:20.514Z,93.00
2019-04-01T02:38:49.012Z,93.30
2019-04-01T02:41:17.476Z,92.80
2019-04-01T02:43:45.954Z,93.60
2019-04-01T02:46:14.449Z,92.70
2019-04-01T02:48:43.046Z,92.20
2019-04-01T02:51:11.547Z,92.00
2019-04-01T02:53:39.998Z,92.80
2019-04-01T02:56:08.466Z,93.50
2019-04-01T02:58:37.026Z,93.20
2019-04-01T03:01:05.503Z,93.60
2019-04-01T03:03:33.980Z,93.70
2019-04-01T03:06:02.440Z,92.90
2019-04-01T03:08:30.933Z,93.00
2019-04-01T03:10:59.385Z,93.40
2019-04-01T03:13:27.872Z,94.10
2019-04-01T03:15:56.351Z,93.70
2019-04-01T03:18:24.873Z,93.80
2019-04-01T03:20:53.349Z,93.80
2019-04-01T03:23:21.838Z,93.90
2019-04-01T03:25:50.287Z,93.50
2019-04-01T03:28:18.759Z,93.60
2019-04-01T03:30:47.235Z,94.20
2019-04-01T03:33:15.801Z,94.30
2019-04-01T03:35:44.288Z,94.20
2019-04-01T03:38:12.743Z,94.70
2019-04-01T03:40:41.236Z,95.00
2019-04-01T03:43:09.697Z,95.10
2019-04-01T03:45:38.247Z,95.20
2019-04-01T03:48:06.711Z,95.30
2019-04-01T03:50:35.273Z,95.50
2019-04-01T03:53:04.005Z,96.60
2019-04-01T03:55:32.880Z,96.10
2019-04-01T03:58:01.448Z,95.40
2019-04-01T04:00:29.942Z,95.50
2019-04-01T04:02:58.394Z,95.80
2019-04-01T04:05:26.861Z,95.50
2019-04-01T04:07:55.349Z,96.30
2019-04-01T04:10:23.881Z,96.50
2019-04-01T04:12:52.376Z,97.00
2019-04-01T04:15:20.898Z,98.30
2019-04-01T04:17:49.740Z,97.20
2019-04-01T04:20:18.203Z,96.50
2019-04-01T04:22:46.697Z,96.30
2019-04-01T04:25:15.223Z,96.10
2019-04-01T04:27:43.704Z,97.30
2019-04-01T04:30:12.541Z,97.40
2019-04-01T04:32:41.330Z,97.00
2019-04-01T04:35:09.783Z,97.10
2019-04-01T04:37:38.310Z,97.50
2019-04-01T04:40:07.445Z,97.30
2019-04-01T04:42:35.927Z,97.40
2019-04-01T04:45:06.321Z,97.90
2019-04-01T04:47:34.859Z,97.40
2019-04-01T04:50:04.381Z,97.50
2019-04-01T04:52:32.833Z,97.70
2019-04-01T04:55:01.404Z,98.20
2019-04-01T04:57:29.853Z,98.10
2019-04-01T04:59:58.349Z,98.60
2019-04-01T05:02:26.819Z,98.40
2019-04-01T05:04:55.298Z,97.80
2019-04-01T05:07:23.759Z,97.80
2019-04-01T05:09:52.239Z,97.20
2019-04-01T05:12:21.031Z,98.10
2019-04-01T05:14:49.508Z,97.70
2019-04-01T05:17:17.997Z,98.00
2019-04-01T05:19:46.947Z,98.20
2019-04-01T05:22:15.882Z,98.60
2019-04-01T05:24:44.671Z,98.00
2019-04-01T05:27:15.095Z,97.90
2019-04-01T05:29:44.499Z,97.80
2019-04-01T05:32:15.540Z,97.70
2019-04-01T05:34:45.443Z,98.40
2019-04-01T05:37:14.105Z,98.10
2019-04-01T05:39:42.579Z,98.30
2019-04-01T05:42:11.222Z,98.90
2019-04-01T05:44:39.751Z,98.20
2019-04-01T05:47:08.294Z,98.50
2019-04-01T05:49:37.137Z,98.90
2019-04-01T05:52:05.864Z,98.80
2019-04-01T05:54:34.323Z,99.10
2019-04-01T05:57:02.787Z,99.50
2019-04-01T05:59:31.441Z,99.90
2019-04-01T06:01:59.977Z,99.90
2019-04-01T06:04:28.873Z,99.80
2019-04-01T06:06:57.323Z,99.70
2019-04-01T06:09:25.889Z,99.40
2019-04-01T06:11:55.044Z,99.40
2019-04-01T06:14:23.504Z,99.10
2019-04-01T06:16:51.974Z,99.40
2019-04-01T06:19:20.438Z,99.20
2019-04-01T06:21:48.935Z,99.70
2019-04-01T06:24:17.391Z,99.90
2019-04-01T06:26:45.994Z,99.90
2019-04-01T06:29:14.489Z,99.90
2019-04-01T06:31:42.926Z,99.90
2019-04-01T06:34:11.651Z,99.90
2019-04-01T06:36:40.485Z,99.90
2019-04-01T06:39:09.083Z,99.90
2019-04-01T06:41:37.641Z,99.90
2019-04-01T06:44:06.633Z,99.90
2019-04-01T06:46:35.232Z,99.90
2019-04-01T06:49:04.095Z,99.90
2019-04-01T06:51:32.723Z,99.90
2019-04-01T06:54:01.358Z,99.90
2019-04-01T06:56:29.901Z,99.90
2019-04-01T06:58:58.444Z,99.90
2019-04-01T07:01:26.909Z,99.90
2019-04-01T07:03:55.374Z,99.90
2019-04-01T07:06:23.859Z,99.90
2019-04-01T07:08:52.315Z,99.90
2019-04-01T07:11:20.871Z,99.90
2019-04-01T07:13:49.757Z,99.90
2019-04-01T07:16:18.240Z,99.90
2019-04-01T07:18:46.710Z,99.90
2019-04-01T07:21:15.161Z,99.90
2019-04-01T07:23:43.709Z,99.90
2019-04-01T07:26:12.196Z,99.90
2019-04-01T07:28:41.032Z,99.90
2019-04-01T07:31:09.593Z,99.90
2019-04-01T07:33:38.118Z,99.90
2019-04-01T07:36:06.756Z,99.60
2019-04-01T07:38:35.364Z,99.40
2019-04-01T07:41:03.976Z,99.10
2019-04-01T07:43:32.499Z,98.60
2019-04-01T07:46:00.984Z,98.60
2019-04-01T07:48:29.583Z,98.50
2019-04-01T07:50:58.521Z,97.70
2019-04-01T07:53:27.114Z,97.70
2019-04-01T07:55:55.745Z,97.90
2019-04-01T07:58:24.834Z,97.40
2019-04-01T08:00:53.766Z,97.50
2019-04-01T08:03:22.378Z,97.60
2019-04-01T08:05:50.975Z,97.10
2019-04-01T08:08:19.851Z,97.10
2019-04-01T08:10:48.613Z,96.70
2019-04-01T08:13:17.516Z,96.80
2019-04-01T08:15:46.317Z,96.70
2019-04-01T08:18:15.091Z,96.40
2019-04-01T08:20:43.571Z,96.20
2019-04-01T08:23:12.175Z,95.60
2019-04-01T08:25:40.949Z,95.70
2019-04-01T08:28:09.567Z,95.10
2019-04-01T08:30:38.182Z,95.00
2019-04-01T08:33:06.652Z,95.00
2019-04-01T08:35:35.358Z,95.30
2019-04-01T08:38:03.972Z,94.50
2019-04-01T08:40:32.521Z,94.50
2019-04-01T08:43:01.462Z,94.40
2019-04-01T08:45:29.907Z,94.40
2019-04-01T08:47:58.784Z,94.30
2019-04-01T08:50:27.615Z,94.20
2019-04-01T08:52:56.180Z,94.20
2019-04-01T08:55:24.887Z,93.90
2019-04-01T08:57:53.375Z,94.00
2019-04-01T09:00:21.973Z,93.90
2019-04-01T09:02:50.441Z,93.70
2019-04-01T09:05:18.931Z,93.50
2019-04-01T09:07:48.064Z,93.80
2019-04-01T09:10:16.606Z,93.10
2019-04-01T09:12:45.621Z,93.20
2019-04-01T09:15:14.434Z,92.70
2019-04-01T09:17:42.961Z,92.80
2019-04-01T09:20:11.589Z,93.00
2019-04-01T09:22:40.123Z,93.40
2019-04-01T09:25:08.735Z,93.20
2019-04-01T09:27:37.231Z,93.10
2019-04-01T09:30:07.990Z,93.00
2019-04-01T09:32:36.469Z,92.60
2019-04-01T09:35:06.795Z,92.40
2019-04-01T09:37:35.355Z,92.80
2019-04-01T09:40:06.587Z,92.20
2019-04-01T09:42:35.089Z,92.30
2019-04-01T09:45:09.021Z,92.30
2019-04-01T09:47:37.657Z,91.80
2019-04-01T09:50:06.665Z,91.50
2019-04-01T09:52:35.150Z,91.20
2019-04-01T09:55:06.096Z,91.30
2019-04-01T09:57:34.519Z,91.30
2019-04-01T10:00:03.881Z,91.40
2019-04-01T10:02:32.510Z,91.50
2019-04-01T10:05:01.087Z,91.60
2019-04-01T10:07:29.581Z,91.50
2019-04-01T10:09:58.200Z,91.70
2019-04-01T10:12:26.677Z,92.10
2019-04-01T10:14:55.164Z,92.20
2019-04-01T10:17:23.617Z,92.00
2019-04-01T10:19:52.417Z,92.30
2019-04-01T10:22:20.867Z,91.80
2019-04-01T10:24:49.346Z,91.80
2019-04-01T10:27:17.823Z,92.10
2019-04-01T10:29:46.297Z,92.00
2019-04-01T10:32:14.765Z,91.30
2019-04-01T10:34:43.302Z,91.20
2019-04-01T10:37:11.807Z,91.20
2019-04-01T10:39:40.270Z,90.50
2019-04-01T10:42:08.740Z,90.70
2019-04-01T10:44:37.225Z,90.50
2019-04-01T10:47:06.049Z,90.20
2019-04-01T10:49:34.752Z,90.60
2019-04-01T10:52:03.225Z,90.40
2019-04-01T10:54:31.774Z,90.40
2019-04-01T10:57:00.278Z,90.70
2019-04-01T10:59:28.781Z,90.40
2019-04-01T11:01:57.306Z,90.90
2019-04-01T11:04:25.857Z,90.50
2019-04-01T11:06:54.843Z,90.30
2019-04-01T11:09:37.772Z,89.10
2019-04-01T11:11:53.668Z,89.10
2019-04-01T11:14:22.827Z,88.20
2019-04-01T11:16:51.515Z,88.50
2019-04-01T11:19:20.132Z,87.70
2019-04-01T11:21:48.582Z,89.20
2019-04-01T11:24:17.491Z,87.80
2019-04-01T11:26:45.965Z,87.20
2019-04-01T11:29:14.516Z,87.90
2019-04-01T11:31:43.213Z,88.50
2019-04-01T11:34:11.804Z,85.80
2019-04-01T11:36:40.438Z,85.80
2019-04-01T11:39:11.183Z,87.20
2019-04-01T11:41:39.804Z,86.00
2019-04-01T11:44:08.743Z,87.50
2019-04-01T11:46:37.255Z,83.10
2019-04-01T11:49:05.873Z,85.30
2019-04-01T11:51:39.567Z,85.50
2019-04-01T11:54:07.994Z,85.20
2019-04-01T11:56:34.929Z,84.10
2019-04-01T11:59:03.473Z,83.00
2019-04-01T12:01:32.023Z,80.90
2019-04-01T12:04:00.488Z,82.20
2019-04-01T12:06:29.321Z,81.00
2019-04-01T12:08:58.857Z,81.80
2019-04-01T12:11:27.566Z,82.20
2019-04-01T12:13:56.931Z,83.60
2019-04-01T12:16:25.592Z,83.30
2019-04-01T12:18:54.061Z,80.80
2019-04-01T12:21:22.968Z,79.40
2019-04-01T12:23:51.421Z,78.90
2019-04-01T12:26:19.891Z,78.10
2019-04-01T12:28:48.380Z,78.40
2019-04-01T12:31:17.213Z,78.00
2019-04-01T12:33:45.920Z,77.70
2019-04-01T12:36:15.718Z,79.30
2019-04-01T12:38:44.613Z,78.50
2019-04-01T12:41:13.145Z,79.40
2019-04-01T12:43:41.699Z,76.70
2019-04-01T12:46:10.252Z,76.80
2019-04-01T12:48:38.872Z,78.20
2019-04-01T12:51:07.427Z,77.10
2019-04-01T12:53:35.934Z,77.50
2019-04-01T12:56:04.493Z,76.30
2019-04-01T12:58:32.954Z,75.90
2019-04-01T13:01:01.437Z,75.90
2019-04-01T13:03:29.928Z,75.80
2019-04-01T13:05:58.415Z,73.80
2019-04-01T13:08:26.957Z,74.90
2019-04-01T13:10:56.709Z,73.80
2019-04-01T13:13:25.418Z,75.10
2019-04-01T13:15:54.004Z,76.60
2019-04-01T13:18:22.569Z,76.30
2019-04-01T13:20:51.896Z,75.50
2019-04-01T13:23:20.865Z,74.80
2019-04-01T13:25:49.335Z,72.30
2019-04-01T13:28:17.819Z,73.40
2019-04-01T13:30:46.962Z,75.20
2019-04-01T13:33:17.048Z,75.60
2019-04-01T13:35:45.692Z,75.50
2019-04-01T13:38:14.989Z,75.40
2019-04-01T13:40:44.439Z,74.50
2019-04-01T13:43:16.830Z,75.60
2019-04-01T13:45:43.565Z,74.90
2019-04-01T13:48:12.306Z,72.80
2019-04-01T13:50:40.792Z,72.60
2019-04-01T13:53:09.245Z,74.20
2019-04-01T13:55:38.291Z,74.00
2019-04-01T13:58:06.991Z,75.20
2019-04-01T14:00:35.481Z,75.60
2019-04-01T14:03:04.007Z,74.70
2019-04-01T14:05:32.493Z,73.10
2019-04-01T14:08:00.990Z,72.70
2019-04-01T14:10:29.809Z,72.30
2019-04-01T14:12:58.275Z,72.40
2019-04-01T14:15:27.063Z,72.00
2019-04-01T14:17:55.518Z,72.70
2019-04-01T14:20:24.007Z,71.60
2019-04-01T14:22:53.691Z,71.80
2019-04-01T14:25:22.209Z,71.70
2019-04-01T14:27:51.001Z,72.30
2019-04-01T14:30:19.697Z,71.90
2019-04-01T14:32:48.161Z,72.40
2019-04-01T14:35:16.715Z,72.70
2019-04-01T14:37:45.183Z,72.30
2019-04-01T14:40:14.008Z,71.90
2019-04-01T14:42:42.549Z,71.80
2019-04-01T14:45:12.731Z,70.00
2019-04-01T14:47:55.904Z,70.90
2019-04-01T14:50:11.554Z,70.10
2019-04-01T14:52:40.978Z,71.60
2019-04-01T14:55:10.013Z,73.30
2019-04-01T14:57:38.510Z,72.10
2019-04-01T15:00:12.555Z,70.90
2019-04-01T15:02:41.344Z,70.00
2019-04-01T15:05:09.901Z,70.00
2019-04-01T15:07:38.406Z,68.40
2019-04-01T15:10:08.503Z,68.40
2019-04-01T15:12:37.153Z,70.20
2019-04-01T15:15:07.649Z,70.00
2019-04-01T15:17:37.023Z,68.90
2019-04-01T15:20:07.330Z,67.50
2019-04-01T15:22:35.884Z,68.70
2019-04-01T15:25:06.803Z,68.90
2019-04-01T15:27:35.292Z,68.10
2019-04-01T15:30:04.516Z,67.40
2019-04-01T15:32:33.002Z,66.60
2019-04-01T15:35:01.479Z,67.00
2019-04-01T15:37:32.144Z,67.10
2019-04-01T15:40:00.435Z,67.60
2019-04-01T15:42:29.220Z,67.20
2019-04-01T15:44:57.697Z,67.60
2019-04-01T15:47:26.492Z,67.80
2019-04-01T15:49:54.955Z,68.40
2019-04-01T15:52:23.457Z,67.10
2019-04-01T15:54:52.248Z,68.00
2019-04-01T15:57:20.800Z,69.20
2019-04-01T15:59:49.277Z,69.30
2019-04-01T16:02:18.103Z,70.20
2019-04-01T16:04:46.557Z,68.60
2019-04-01T16:07:15.018Z,68.80
2019-04-01T16:09:43.769Z,67.90
2019-04-01T16:12:12.225Z,68.40
2019-04-01T16:14:40.711Z,69.40
2019-04-01T16:17:09.204Z,69.10
2019-04-01T16:19:37.671Z,69.00
2019-04-01T16:22:06.237Z,69.50
2019-04-01T16:24:34.773Z,70.70
2019-04-01T16:27:03.245Z,70.80
2019-04-01T16:29:31.728Z,69.30
2019-04-01T16:32:00.195Z,69.50
2019-04-01T16:34:28.687Z,69.10
2019-04-01T16:36:57.159Z,69.80
2019-04-01T16:39:25.619Z,69.80
2019-04-01T16:41:54.094Z,69.40
2019-04-01T16:44:22.617Z,70.20
2019-04-01T16:46:51.184Z,70.40
2019-04-01T16:49:19.680Z,70.20
2019-04-01T16:51:48.223Z,69.60
2019-04-01T16:54:16.779Z,70.00
2019-04-01T16:56:45.248Z,70.60
2019-04-01T16:59:14.003Z,70.90
2019-04-01T17:01:42.556Z,71.60
2019-04-01T17:04:11.120Z,71.10
2019-04-01T17:06:39.655Z,71.00
2019-04-01T17:09:08.593Z,70.50
2019-04-01T17:11:38.512Z,70.60
2019-04-01T17:14:09.075Z,71.60
2019-04-01T17:16:37.581Z,72.40
2019-04-01T17:19:06.048Z,72.90
2019-04-01T17:21:34.617Z,73.00
2019-04-01T17:24:03.314Z,74.40
2019-04-01T17:26:31.851Z,73.30
2019-04-01T17:29:00.314Z,73.60
2019-04-01T17:31:28.825Z,74.00
2019-04-01T17:33:57.283Z,74.40
2019-04-01T17:36:25.788Z,74.70
2019-04-01T17:38:54.247Z,74.80
2019-04-01T17:41:23.018Z,75.30
2019-04-01T17:43:51.567Z,74.30
2019-04-01T17:46:20.104Z,74.70
2019-04-01T17:48:48.859Z,74.70
2019-04-01T17:51:17.337Z,75.20
2019-04-01T17:53:45.819Z,75.30
2019-04-01T17:56:14.338Z,75.30
2019-04-01T17:58:44.263Z,75.70
2019-04-01T18:01:12.971Z,76.10
2019-04-01T18:03:41.530Z,76.00
2019-04-01T18:06:10.003Z,76.50
2019-04-01T18:08:38.461Z,75.80
2019-04-01T18:11:07.243Z,76.20
2019-04-01T18:13:35.730Z,76.50
2019-04-01T18:16:04.212Z,76.40
2019-04-01T18:18:34.168Z,76.90
2019-04-01T18:21:03.482Z,76.60
2019-04-01T18:23:32.275Z,76.70
2019-04-01T18:26:00.785Z,77.00
2019-04-01T18:28:29.258Z,77.40
2019-04-01T18:30:57.715Z,78.20
2019-04-01T18:33:26.609Z,78.60
2019-04-01T18:35:55.094Z,77.80
2019-04-01T18:38:23.826Z,76.90
2019-04-01T18:40:52.319Z,76.40
2019-04-01T18:43:20.793Z,75.80
2019-04-01T18:45:49.241Z,76.80
2019-04-01T18:48:19.302Z,77.70
2019-04-01T18:50:47.922Z,79.00
2019-04-01T18:53:16.386Z,78.20
2019-04-01T18:55:44.881Z,78.40
2019-04-01T18:58:13.735Z,79.00
2019-04-01T19:00:42.189Z,78.90
2019-04-01T19:03:10.716Z,79.20
2019-04-01T19:05:39.549Z,79.40
2019-04-01T19:08:08.380Z,79.60
2019-04-01T19:10:39.279Z,80.10
2019-04-01T19:13:11.323Z,80.50
2019-04-01T19:15:40.945Z,80.70
2019-04-01T19:18:07.811Z,80.60
2019-04-01T19:20:36.280Z,81.00
2019-04-01T19:23:04.904Z,81.10
2019-04-01T19:25:33.537Z,81.50
2019-04-01T19:28:02.371Z,81.20
2019-04-01T19:30:30.859Z,81.40
2019-04-01T19:32:59.347Z,80.10
2019-04-01T19:35:28.164Z,80.20
2019-04-01T19:37:56.685Z,80.40
2019-04-01T19:40:25.494Z,80.70
2019-04-01T19:42:53.982Z,80.60
2019-04-01T19:45:22.505Z,80.40
2019-04-01T19:47:50.990Z,79.30
2019-04-01T19:50:19.945Z,78.80
2019-04-01T19:52:48.443Z,78.80
2019-04-01T19:55:16.927Z,78.70
2019-04-01T19:57:45.691Z,79.00
2019-04-01T20:00:27.213Z,79.50
2019-04-01T20:02:44.700Z,80.00
2019-04-01T20:05:13.235Z,80.60
2019-04-01T20:07:41.970Z,80.90
2019-04-01T20:10:10.681Z,81.50
2019-04-01T20:12:41.037Z,79.80
2019-04-01T20:15:12.195Z,79.20
2019-04-01T20:17:41.061Z,79.70
2019-04-01T20:20:10.093Z,79.40
2019-04-01T20:22:38.549Z,79.60
2019-04-01T20:25:07.775Z,79.90
2019-04-01T20:27:36.595Z,80.00
2019-04-01T20:30:09.651Z,79.70
2019-04-01T20:32:38.237Z,80.00
2019-04-01T20:35:08.536Z,80.50
2019-04-01T20:37:37.011Z,79.40
2019-04-01T20:40:06.695Z,79.80
2019-04-01T20:42:35.245Z,80.40
2019-04-01T20:45:05.730Z,79.70
2019-04-01T20:47:35.841Z,79.80
2019-04-01T20:50:09.353Z,80.50
2019-04-01T20:52:37.901Z,80.30
2019-04-01T20:55:06.915Z,79.80
2019-04-01T20:57:35.748Z,80.10
2019-04-01T21:00:09.334Z,79.40
2019-04-01T21:02:38.369Z,79.80
2019-04-01T21:05:07.983Z,79.60
2019-04-01T21:07:36.531Z,79.80
2019-04-01T21:10:08.032Z,79.70
2019-04-01T21:12:37.273Z,80.00
2019-04-01T21:15:08.014Z,80.10
2019-04-01T21:17:36.509Z,80.10
2019-04-01T21:20:08.381Z,80.10
2019-04-01T21:22:37.399Z,80.90
2019-04-01T21:25:07.125Z,80.40
2019-04-01T21:27:35.661Z,81.10
2019-04-01T21:30:07.350Z,81.00
2019-04-01T21:32:35.829Z,81.40
2019-04-01T21:35:05.351Z,81.40
2019-04-01T21:37:34.195Z,81.60
2019-04-01T21:40:05.646Z,81.30
2019-04-01T21:42:34.171Z,81.60
2019-04-01T21:45:03.395Z,81.80
2019-04-01T21:47:31.874Z,81.60
2019-04-01T21:50:00.369Z,82.50
2019-04-01T21:52:28.827Z,82.50
2019-04-01T21:54:57.595Z,82.00
2019-04-01T21:57:26.069Z,82.40
2019-04-01T21:59:54.869Z,82.10
2019-04-01T22:02:35.199Z,82.30
2019-04-01T22:04:53.545Z,82.60
2019-04-01T22:07:22.157Z,82.80
2019-04-01T22:09:50.623Z,84.80
2019-04-01T22:12:19.103Z,83.80
2019-04-01T22:14:47.581Z,83.10
2019-04-01T22:17:16.157Z,83.80
2019-04-01T22:19:45.621Z,84.10
2019-04-01T22:22:14.385Z,84.50
2019-04-01T22:24:43.153Z,84.50
2019-04-01T22:27:11.627Z,84.60
2019-04-01T22:29:40.422Z,84.90
2019-04-01T22:32:08.900Z,85.10
2019-04-01T22:34:38.227Z,85.30
2019-04-01T22:37:08.121Z,85.60
2019-04-01T22:39:36.791Z,85.10
2019-04-01T22:42:05.327Z,84.90
2019-04-01T22:44:34.110Z,85.00
2019-04-01T22:47:02.585Z,85.50
2019-04-01T22:49:31.050Z,84.90
2019-04-01T22:51:59.532Z,85.30
2019-04-01T22:54:27.981Z,85.70
2019-04-01T22:56:56.466Z,85.10
2019-04-01T22:59:24.945Z,85.70
2019-04-01T23:01:53.417Z,85.60
2019-04-01T23:04:21.871Z,85.60
2019-04-01T23:06:50.364Z,86.10
2019-04-01T23:09:19.220Z,85.50
2019-04-01T23:11:47.784Z,85.30
2019-04-01T23:14:17.106Z,85.50
2019-04-01T23:16:45.791Z,85.90
2019-04-01T23:19:14.264Z,85.80
2019-04-01T23:21:42.761Z,85.90
2019-04-01T23:24:11.245Z,86.10
2019-04-01T23:26:40.133Z,86.10
2019-04-01T23:29:08.919Z,86.30
2019-04-01T23:31:38.517Z,86.40
2019-04-01T23:34:07.110Z,86.60
2019-04-01T23:36:35.576Z,86.70
2019-04-01T23:39:06.289Z,86.50
2019-04-01T23:41:34.751Z,86.90
2019-04-01T23:44:03.585Z,87.00
2019-04-01T23:46:32.066Z,86.50
2019-04-01T23:49:00.552Z,86.50
2019-04-01T23:51:29.006Z,86.60
2019-04-01T23:53:57.475Z,86.40
2019-04-01T23:56:27.141Z,87.20
2019-04-01T23:58:56.228Z,86.50
